createdAt,value
2019-02-27T00:01:53.229Z,26.27
2019-02-27T00:04:21.366Z,23.77
2019-02-27T00:06:49.777Z,21.23
2019-02-27T00:09:17.819Z,20.32
2019-02-27T00:11:46.814Z,22.82
2019-02-27T00:14:14.814Z,23.52
2019-02-27T00:16:44.624Z,21.73
2019-02-27T00:19:13.201Z,22.07
2019-02-27T00:21:43.562Z,23.55
2019-02-27T00:24:11.182Z,21.73
2019-02-27T00:26:39.530Z,22.58
2019-02-27T00:29:09.442Z,22.25
2019-02-27T00:31:37.659Z,19.50
2019-02-27T00:34:05.872Z,24.80
2019-02-27T00:36:33.911Z,22.75
2019-02-27T00:39:02.277Z,20.97
2019-02-27T00:41:30.574Z,20.08
2019-02-27T00:44:01.079Z,22.60
2019-02-27T00:46:28.652Z,22.30
2019-02-27T00:48:59.050Z,22.02
2019-02-27T00:51:26.750Z,23.75
2019-02-27T00:53:55.920Z,20.57
2019-02-27T00:56:25.357Z,23.05
2019-02-27T00:58:53.529Z,20.88
2019-02-27T01:01:21.684Z,21.77
2019-02-27T01:03:49.809Z,23.75
2019-02-27T01:06:17.950Z,19.98
2019-02-27T01:08:46.449Z,19.98
2019-02-27T01:11:18.145Z,19.12
2019-02-27T01:13:44.733Z,19.32
2019-02-27T01:16:16.971Z,20.00
2019-02-27T01:18:42.694Z,19.05
2019-02-27T01:21:10.861Z,22.02
2019-02-27T01:23:38.877Z,20.92
2019-02-27T01:26:06.917Z,17.95
2019-02-27T01:28:34.989Z,19.40
2019-02-27T01:31:03.119Z,22.37
2019-02-27T01:33:31.153Z,18.50
2019-02-27T01:35:59.097Z,23.70
2019-02-27T01:38:27.159Z,25.55
2019-02-27T01:40:55.093Z,21.85
2019-02-27T01:43:23.637Z,20.45
2019-02-27T01:45:51.904Z,22.55
2019-02-27T01:48:21.601Z,19.45
2019-02-27T01:50:49.913Z,21.15
2019-02-27T01:53:17.945Z,22.37
2019-02-27T01:55:46.129Z,17.87
2019-02-27T01:58:14.153Z,19.50
2019-02-27T02:00:42.567Z,21.25
2019-02-27T02:03:13.381Z,20.15
2019-02-27T02:05:41.673Z,18.85
2019-02-27T02:08:13.483Z,20.02
2019-02-27T02:10:41.489Z,20.45
2019-02-27T02:13:22.905Z,18.98
2019-02-27T02:16:23.261Z,19.62
2019-02-27T02:19:36.462Z,19.73
2019-02-27T02:22:41.271Z,21.52
2019-02-27T02:25:27.993Z,18.35
2019-02-27T02:28:28.206Z,18.40
2019-02-27T02:31:17.318Z,18.10
2019-02-27T02:34:13.470Z,20.00
2019-02-27T02:37:02.877Z,22.35
2019-02-27T02:39:58.654Z,20.30
2019-02-27T02:42:51.095Z,22.42
2019-02-27T02:45:45.618Z,18.07
2019-02-27T02:48:40.332Z,18.55
2019-02-27T02:51:54.969Z,18.35
2019-02-27T02:55:12.739Z,17.27
2019-02-27T02:58:11.444Z,15.70
2019-02-27T03:01:21.045Z,16.87
2019-02-27T03:04:34.661Z,15.88
2019-02-27T03:07:44.729Z,20.75
2019-02-27T03:10:23.704Z,17.20
2019-02-27T03:13:26.421Z,19.07
2019-02-27T03:16:34.042Z,16.70
2019-02-27T03:19:43.360Z,18.65
2019-02-27T03:22:29.125Z,18.10
2019-02-27T03:25:32.334Z,16.60
2019-02-27T03:28:40.609Z,17.45
2019-02-27T03:31:34.213Z,17.35
2019-02-27T03:34:29.983Z,16.07
2019-02-27T03:37:34.636Z,18.00
2019-02-27T03:40:32.394Z,20.37
2019-02-27T03:43:19.780Z,20.35
2019-02-27T03:46:31.758Z,17.75
2019-02-27T03:49:46.418Z,18.05
2019-02-27T03:52:58.602Z,18.15
2019-02-27T03:56:09.719Z,19.67
2019-02-27T03:59:06.302Z,20.12
2019-02-27T04:02:30.015Z,13.95
2019-02-27T04:05:22.711Z,13.72
2019-02-27T04:08:10.671Z,16.55
2019-02-27T04:10:39.027Z,16.10
2019-02-27T04:13:07.154Z,15.83
2019-02-27T04:15:35.837Z,16.20
2019-02-27T04:18:03.064Z,15.25
2019-02-27T04:20:31.222Z,14.95
2019-02-27T04:22:59.443Z,13.90
2019-02-27T04:25:31.060Z,18.27
2019-02-27T04:27:57.424Z,16.90
2019-02-27T04:30:25.454Z,14.63
2019-02-27T04:32:53.472Z,17.60
2019-02-27T04:35:21.581Z,18.40
2019-02-27T04:37:53.937Z,14.68
2019-02-27T04:40:19.374Z,13.58
2019-02-27T04:42:47.306Z,14.45
2019-02-27T04:45:15.361Z,16.02
2019-02-27T04:47:43.310Z,15.63
2019-02-27T04:50:11.904Z,15.72
2019-02-27T04:52:40.165Z,18.73
2019-02-27T04:55:08.231Z,19.70
2019-02-27T04:57:36.181Z,19.25
2019-02-27T05:00:04.343Z,18.65
2019-02-27T05:02:32.523Z,14.93
2019-02-27T05:05:00.662Z,14.78
2019-02-27T05:07:28.629Z,16.15
2019-02-27T05:09:56.757Z,22.52
2019-02-27T05:12:24.874Z,16.97
2019-02-27T05:14:52.798Z,16.93
2019-02-27T05:17:21.444Z,17.90
2019-02-27T05:19:51.994Z,16.75
2019-02-27T05:22:20.250Z,16.93
2019-02-27T05:24:48.305Z,15.43
2019-02-27T05:27:16.367Z,19.52
2019-02-27T05:29:44.294Z,17.07
2019-02-27T05:32:12.366Z,14.00
2019-02-27T05:34:40.525Z,18.87
2019-02-27T05:37:08.459Z,14.50
2019-02-27T05:39:36.532Z,21.37
2019-02-27T05:42:06.371Z,14.15
2019-02-27T05:44:35.226Z,15.45
2019-02-27T05:47:03.369Z,16.93
2019-02-27T05:49:31.625Z,18.30
2019-02-27T05:51:59.734Z,17.90
2019-02-27T05:54:29.917Z,15.68
2019-02-27T05:56:58.157Z,15.60
2019-02-27T05:59:28.925Z,22.42
2019-02-27T06:01:56.968Z,16.93
2019-02-27T06:04:29.025Z,15.13
2019-02-27T06:06:56.953Z,17.60
2019-02-27T06:09:24.970Z,17.00
2019-02-27T06:11:52.923Z,15.80
2019-02-27T06:14:21.996Z,20.10
2019-02-27T06:16:50.102Z,16.70
2019-02-27T06:19:18.146Z,17.07
2019-02-27T06:21:46.107Z,13.32
2019-02-27T06:24:14.403Z,19.05
2019-02-27T06:26:42.967Z,17.35
2019-02-27T06:29:11.366Z,17.77
2019-02-27T06:31:39.598Z,16.77
2019-02-27T06:34:07.896Z,15.90
2019-02-27T06:36:41.985Z,24.98
2019-02-27T06:39:08.744Z,18.32
2019-02-27T06:41:37.095Z,19.10
2019-02-27T06:44:05.360Z,21.20
2019-02-27T06:46:34.446Z,16.50
2019-02-27T06:49:03.840Z,14.45
2019-02-27T06:51:33.350Z,23.73
2019-02-27T06:54:02.570Z,18.20
2019-02-27T06:56:31.090Z,18.82
2019-02-27T06:59:00.261Z,15.83
2019-02-27T07:01:28.611Z,11.95
2019-02-27T07:03:57.349Z,16.37
2019-02-27T07:06:25.959Z,18.30
2019-02-27T07:08:54.161Z,19.23
2019-02-27T07:11:22.533Z,19.67
2019-02-27T07:13:50.945Z,20.10
2019-02-27T07:16:20.562Z,20.43
2019-02-27T07:18:49.645Z,21.75
2019-02-27T07:21:17.833Z,18.37
2019-02-27T07:23:45.879Z,21.52
2019-02-27T07:26:15.797Z,22.85
2019-02-27T07:28:45.131Z,19.85
2019-02-27T07:31:17.519Z,18.23
2019-02-27T07:33:43.465Z,19.05
2019-02-27T07:36:11.794Z,19.35
2019-02-27T07:38:40.478Z,16.45
2019-02-27T07:41:08.557Z,17.87
2019-02-27T07:43:36.769Z,17.37
2019-02-27T07:46:05.059Z,17.95
2019-02-27T07:48:33.473Z,17.50
2019-02-27T07:51:01.502Z,15.78
2019-02-27T07:53:29.464Z,16.20
2019-02-27T07:55:57.511Z,16.50
2019-02-27T07:58:25.922Z,16.17
2019-02-27T08:00:54.090Z,24.32
2019-02-27T08:03:22.185Z,16.50
2019-02-27T08:05:54.575Z,21.02
2019-02-27T08:08:23.759Z,18.30
2019-02-27T08:10:52.464Z,15.25
2019-02-27T08:13:20.505Z,13.15
2019-02-27T08:15:49.146Z,15.13
2019-02-27T08:18:27.103Z,16.02
2019-02-27T08:20:48.382Z,11.68
2019-02-27T08:23:16.362Z,10.67
2019-02-27T08:25:46.008Z,15.57
2019-02-27T08:28:17.226Z,14.53
2019-02-27T08:30:44.502Z,13.23
2019-02-27T08:33:12.555Z,16.93
2019-02-27T08:35:40.841Z,14.53
2019-02-27T08:38:08.880Z,12.83
2019-02-27T08:40:37.018Z,13.00
2019-02-27T08:43:05.365Z,19.70
2019-02-27T08:45:33.537Z,26.53
2019-02-27T08:48:01.913Z,28.60
2019-02-27T08:50:31.654Z,25.33
2019-02-27T08:52:59.850Z,22.23
2019-02-27T08:55:31.841Z,27.57
2019-02-27T08:57:59.862Z,26.97
2019-02-27T09:00:29.320Z,22.73
2019-02-27T09:03:02.409Z,20.53
2019-02-27T09:05:27.466Z,26.07
2019-02-27T09:07:55.551Z,23.20
2019-02-27T09:10:26.881Z,24.37
2019-02-27T09:13:04.376Z,21.77
2019-02-27T09:15:24.560Z,18.97
2019-02-27T09:17:52.629Z,20.00
2019-02-27T09:20:20.773Z,17.73
2019-02-27T09:22:50.567Z,17.83
2019-02-27T09:25:23.555Z,15.03
2019-02-27T09:27:48.685Z,15.47
2019-02-27T09:30:16.890Z,11.93
2019-02-27T09:32:46.067Z,15.93
2019-02-27T09:35:15.123Z,13.97
2019-02-27T09:37:43.286Z,16.83
2019-02-27T09:40:14.501Z,18.43
2019-02-27T09:42:42.437Z,14.87
2019-02-27T09:45:29.080Z,14.87
2019-02-27T09:47:59.970Z,16.03
2019-02-27T09:50:39.939Z,16.27
2019-02-27T09:53:08.393Z,16.77
2019-02-27T09:55:36.558Z,14.47
2019-02-27T09:58:10.090Z,7.50
2019-02-27T10:00:38.339Z,8.00
2019-02-27T10:03:07.306Z,6.13
2019-02-27T10:05:36.669Z,6.83
2019-02-27T10:08:07.574Z,8.83
2019-02-27T10:10:35.777Z,8.40
2019-02-27T10:13:08.430Z,6.90
2019-02-27T10:15:37.056Z,13.40
2019-02-27T10:18:06.668Z,7.50
2019-02-27T10:20:36.796Z,7.90
2019-02-27T10:23:04.881Z,8.67
2019-02-27T10:25:36.106Z,8.70
2019-02-27T10:28:04.831Z,9.07
2019-02-27T10:30:33.427Z,8.30
2019-02-27T10:33:03.259Z,9.63
2019-02-27T10:35:35.157Z,7.73
2019-02-27T10:38:03.562Z,8.63
2019-02-27T10:40:31.941Z,8.93
2019-02-27T10:43:00.351Z,8.73
2019-02-27T10:45:28.917Z,81.50
2019-02-27T10:48:00.652Z,17.37
2019-02-27T10:50:29.319Z,9.33
2019-02-27T10:52:57.989Z,7.87
2019-02-27T10:55:26.982Z,9.30
2019-02-27T10:57:55.877Z,8.27
2019-02-27T11:00:28.764Z,9.77
2019-02-27T11:02:57.532Z,9.20
2019-02-27T11:05:26.971Z,10.63
2019-02-27T11:07:55.314Z,9.67
2019-02-27T11:10:27.922Z,8.00
2019-02-27T11:12:56.585Z,7.70
2019-02-27T11:15:24.739Z,7.07
2019-02-27T11:17:53.532Z,4.30
2019-02-27T11:20:22.104Z,3.93
2019-02-27T11:22:56.093Z,6.87
2019-02-27T11:25:24.443Z,4.70
2019-02-27T11:27:52.593Z,5.40
2019-02-27T11:30:23.005Z,3.63
2019-02-27T11:32:50.973Z,4.03
2019-02-27T11:35:22.108Z,4.10
2019-02-27T11:37:51.581Z,4.30
2019-02-27T11:40:20.552Z,4.23
2019-02-27T11:42:48.705Z,4.37
2019-02-27T11:45:16.934Z,5.10
2019-02-27T11:47:48.513Z,5.70
2019-02-27T11:50:17.890Z,4.20
2019-02-27T11:52:49.149Z,6.40
2019-02-27T11:55:16.935Z,5.57
2019-02-27T11:57:48.629Z,4.93
2019-02-27T12:00:23.844Z,5.80
2019-02-27T12:02:51.958Z,4.30
2019-02-27T12:05:19.977Z,6.47
2019-02-27T12:07:51.272Z,4.63
2019-02-27T12:10:20.381Z,5.07
2019-02-27T12:12:49.624Z,6.23
2019-02-27T12:15:17.403Z,3.87
2019-02-27T12:17:46.991Z,4.20
2019-02-27T12:20:19.624Z,4.20
2019-02-27T12:22:48.025Z,4.40
2019-02-27T12:25:16.557Z,7.90
2019-02-27T12:27:49.260Z,4.80
2019-02-27T12:30:19.959Z,3.83
2019-02-27T12:32:48.974Z,3.70
2019-02-27T12:35:19.581Z,4.23
2019-02-27T12:37:48.130Z,5.10
2019-02-27T12:40:17.303Z,7.33
2019-02-27T12:42:49.823Z,5.10
2019-02-27T12:45:19.451Z,5.97
2019-02-27T12:47:47.650Z,6.10
2019-02-27T12:50:20.030Z,6.33
2019-02-27T12:52:48.232Z,3.87
2019-02-27T12:55:20.356Z,3.47
2019-02-27T12:57:51.899Z,3.90
2019-02-27T13:00:19.113Z,5.03
2019-02-27T13:02:46.345Z,4.90
2019-02-27T13:05:20.051Z,4.80
2019-02-27T13:07:48.256Z,4.07
2019-02-27T13:10:17.605Z,4.90
2019-02-27T13:12:46.122Z,4.20
2019-02-27T13:15:21.350Z,5.53
2019-02-27T13:17:49.960Z,5.03
2019-02-27T13:20:20.473Z,4.33
2019-02-27T13:22:49.052Z,3.73
2019-02-27T13:25:17.687Z,4.67
2019-02-27T13:27:48.187Z,4.20
2019-02-27T13:30:17.551Z,5.53
2019-02-27T13:32:45.926Z,4.37
2019-02-27T13:35:14.726Z,5.13
2019-02-27T13:37:44.514Z,7.37
2019-02-27T13:40:14.991Z,7.30
2019-02-27T13:42:43.409Z,4.93
2019-02-27T13:45:14.481Z,4.70
2019-02-27T13:47:42.626Z,5.27
2019-02-27T13:50:11.418Z,4.67
2019-02-27T13:52:41.097Z,11.90
2019-02-27T13:55:11.152Z,4.47
2019-02-27T13:57:39.461Z,4.50
2019-02-27T14:00:11.617Z,4.13
2019-02-27T14:02:42.363Z,4.10
2019-02-27T14:05:11.242Z,7.63
2019-02-27T14:07:39.371Z,4.27
2019-02-27T14:10:07.782Z,7.47
2019-02-27T14:12:36.438Z,4.03
2019-02-27T14:15:05.871Z,6.57
2019-02-27T14:17:41.373Z,5.70
2019-02-27T14:20:10.654Z,5.00
2019-02-27T14:22:40.680Z,4.20
2019-02-27T14:25:10.701Z,5.83
2019-02-27T14:27:40.378Z,4.37
2019-02-27T14:30:12.347Z,5.57
2019-02-27T14:32:40.513Z,4.80
2019-02-27T14:35:08.641Z,4.67
2019-02-27T14:37:40.949Z,4.40
2019-02-27T14:40:11.533Z,3.77
2019-02-27T14:42:39.697Z,5.40
2019-02-27T14:45:11.873Z,4.77
2019-02-27T14:47:43.870Z,4.73
2019-02-27T14:50:13.718Z,7.40
2019-02-27T14:52:41.878Z,3.40
2019-02-27T14:55:10.806Z,3.30
2019-02-27T14:57:38.981Z,3.83
2019-02-27T15:00:12.331Z,4.23
2019-02-27T15:02:40.462Z,5.10
2019-02-27T15:05:09.138Z,5.30
2019-02-27T15:07:37.458Z,6.10
2019-02-27T15:10:07.217Z,4.10
2019-02-27T15:12:36.281Z,4.70
2019-02-27T15:15:06.801Z,5.67
2019-02-27T15:17:35.443Z,4.27
2019-02-27T15:20:05.709Z,5.30
2019-02-27T15:22:40.102Z,5.80
2019-02-27T15:25:09.893Z,5.67
2019-02-27T15:27:37.853Z,4.20
2019-02-27T15:30:06.717Z,4.17
2019-02-27T15:32:34.669Z,4.83
2019-02-27T15:35:06.722Z,4.90
2019-02-27T15:37:37.180Z,4.37
2019-02-27T15:40:06.010Z,5.23
2019-02-27T15:42:34.055Z,3.80
2019-02-27T15:45:02.291Z,4.30
2019-02-27T15:47:33.735Z,6.03
2019-02-27T15:50:02.760Z,5.30
2019-02-27T15:52:30.971Z,8.80
2019-02-27T15:54:59.273Z,6.03
2019-02-27T15:57:28.201Z,5.17
2019-02-27T15:59:59.663Z,3.80
2019-02-27T16:02:29.235Z,6.47
2019-02-27T16:04:57.617Z,5.17
2019-02-27T16:07:25.699Z,5.27
2019-02-27T16:09:54.097Z,5.20
2019-02-27T16:12:26.015Z,5.10
2019-02-27T16:14:54.561Z,3.77
2019-02-27T16:17:22.658Z,5.53
2019-02-27T16:19:50.701Z,5.30
2019-02-27T16:22:18.618Z,4.20
2019-02-27T16:24:50.601Z,5.27
2019-02-27T16:27:18.666Z,3.87
2019-02-27T16:29:46.829Z,6.93
2019-02-27T16:32:14.860Z,7.50
2019-02-27T16:34:42.926Z,5.43
2019-02-27T16:37:14.544Z,6.30
2019-02-27T16:39:45.603Z,9.60
2019-02-27T16:42:12.465Z,8.00
2019-02-27T16:44:40.729Z,9.20
2019-02-27T16:47:08.929Z,13.30
2019-02-27T16:49:41.492Z,8.20
2019-02-27T16:52:10.089Z,8.97
2019-02-27T16:54:38.627Z,9.20
2019-02-27T16:57:06.573Z,12.87
2019-02-27T16:59:34.845Z,12.03
2019-02-27T17:02:05.764Z,8.63
2019-02-27T17:04:35.015Z,7.80
2019-02-27T17:07:03.396Z,15.27
2019-02-27T17:09:31.670Z,13.13
2019-02-27T17:12:00.238Z,14.93
2019-02-27T17:14:32.229Z,6.80
2019-02-27T17:17:00.801Z,11.67
2019-02-27T17:19:29.416Z,8.20
2019-02-27T17:21:58.756Z,12.60
2019-02-27T17:24:27.745Z,15.30
2019-02-27T17:26:56.677Z,10.90
2019-02-27T17:29:26.488Z,10.80
2019-02-27T17:31:56.424Z,9.43
2019-02-27T17:34:24.870Z,9.00
2019-02-27T17:36:57.696Z,7.63
2019-02-27T17:39:28.963Z,16.00
2019-02-27T17:41:55.885Z,13.43
2019-02-27T17:44:24.264Z,12.77
2019-02-27T17:46:54.842Z,12.73
2019-02-27T17:49:25.487Z,10.90
2019-02-27T17:51:52.791Z,10.03
2019-02-27T17:54:22.033Z,10.30
2019-02-27T17:56:50.742Z,8.73
2019-02-27T17:59:19.277Z,8.70
2019-02-27T18:01:48.374Z,10.80
2019-02-27T18:04:16.873Z,13.27
2019-02-27T18:06:45.529Z,14.67
2019-02-27T18:09:13.976Z,10.03
2019-02-27T18:11:42.686Z,14.70
2019-02-27T18:14:11.019Z,11.97
2019-02-27T18:16:39.609Z,12.43
2019-02-27T18:19:07.907Z,11.23
2019-02-27T18:21:36.651Z,14.23
2019-02-27T18:24:05.046Z,15.73
2019-02-27T18:26:33.671Z,13.40
2019-02-27T18:29:04.345Z,10.30
2019-02-27T18:31:32.794Z,7.77
2019-02-27T18:34:01.662Z,14.20
2019-02-27T18:36:29.950Z,9.27
2019-02-27T18:39:01.638Z,12.67
2019-02-27T18:41:27.934Z,12.00
2019-02-27T18:43:56.274Z,10.90
2019-02-27T18:46:25.542Z,14.00
2019-02-27T18:48:53.681Z,11.23
2019-02-27T18:51:25.013Z,10.70
2019-02-27T18:53:53.381Z,10.73
2019-02-27T18:56:21.861Z,12.70
2019-02-27T18:58:51.989Z,10.27
2019-02-27T19:01:21.291Z,9.37
2019-02-27T19:03:51.351Z,11.20
2019-02-27T19:06:21.146Z,12.27
2019-02-27T19:08:49.617Z,20.13
2019-02-27T19:11:19.863Z,17.07
2019-02-27T19:13:47.989Z,14.73
2019-02-27T19:16:17.553Z,16.80
2019-02-27T19:18:46.281Z,16.00
2019-02-27T19:21:14.492Z,16.83
2019-02-27T19:23:42.640Z,16.80
2019-02-27T19:26:10.885Z,16.40
2019-02-27T19:28:41.358Z,21.63
2019-02-27T19:31:09.715Z,14.77
2019-02-27T19:33:38.088Z,12.73
2019-02-27T19:36:06.250Z,15.27
2019-02-27T19:38:35.867Z,13.80
2019-02-27T19:41:04.740Z,16.40
2019-02-27T19:43:33.061Z,13.70
2019-02-27T19:46:01.218Z,12.43
2019-02-27T19:48:29.680Z,15.60
2019-02-27T19:50:57.887Z,10.13
2019-02-27T19:53:26.160Z,11.33
2019-02-27T19:55:54.295Z,12.70
2019-02-27T19:58:23.737Z,11.87
2019-02-27T20:00:51.814Z,11.57
2019-02-27T20:03:20.446Z,13.50
2019-02-27T20:05:50.621Z,12.30
2019-02-27T20:08:19.573Z,16.37
2019-02-27T20:10:48.201Z,10.63
2019-02-27T20:13:16.833Z,12.50
2019-02-27T20:15:45.669Z,12.90
2019-02-27T20:18:14.559Z,12.90
2019-02-27T20:20:42.944Z,17.70
2019-02-27T20:23:11.083Z,12.73
2019-02-27T20:25:43.242Z,12.97
2019-02-27T20:28:09.341Z,11.30
2019-02-27T20:30:37.453Z,12.50
2019-02-27T20:33:05.578Z,10.60
2019-02-27T20:35:34.794Z,11.93
2019-02-27T20:38:03.021Z,9.60
2019-02-27T20:40:34.341Z,11.27
2019-02-27T20:43:01.807Z,10.20
2019-02-27T20:45:30.230Z,8.63
2019-02-27T20:48:01.712Z,9.43
2019-02-27T20:50:35.507Z,10.17
2019-02-27T20:53:04.069Z,9.90
2019-02-27T20:55:32.378Z,9.20
2019-02-27T20:58:01.038Z,16.93
2019-02-27T21:00:35.959Z,15.27
2019-02-27T21:03:02.356Z,12.10
2019-02-27T21:05:30.346Z,21.80
2019-02-27T21:08:02.037Z,16.03
2019-02-27T21:10:29.537Z,13.63
2019-02-27T21:12:57.301Z,11.07
2019-02-27T21:15:26.071Z,10.50
2019-02-27T21:17:57.794Z,12.50
2019-02-27T21:20:24.717Z,10.30
2019-02-27T21:22:53.006Z,11.33
2019-02-27T21:25:22.869Z,7.67
2019-02-27T21:27:51.402Z,11.20
2019-02-27T21:30:19.997Z,8.27
2019-02-27T21:32:48.603Z,11.77
2019-02-27T21:35:17.795Z,8.47
2019-02-27T21:37:46.673Z,10.97
2019-02-27T21:40:15.094Z,10.43
2019-02-27T21:42:43.461Z,10.07
2019-02-27T21:45:13.865Z,9.03
2019-02-27T21:47:42.233Z,8.87
2019-02-27T21:50:12.965Z,8.87
2019-02-27T21:52:41.386Z,9.37
2019-02-27T21:55:12.833Z,13.33
2019-02-27T21:57:40.312Z,11.23
2019-02-27T22:00:13.982Z,9.13
2019-02-27T22:02:42.816Z,15.83
2019-02-27T22:05:11.649Z,10.90
2019-02-27T22:07:40.028Z,7.83
2019-02-27T22:10:09.825Z,9.10
2019-02-27T22:12:38.061Z,10.43
2019-02-27T22:15:12.916Z,9.27
2019-02-27T22:17:41.389Z,9.80
2019-02-27T22:20:10.225Z,10.60
2019-02-27T22:22:42.384Z,8.97
2019-02-27T22:25:11.179Z,14.30
2019-02-27T22:27:39.597Z,10.80
2019-02-27T22:30:11.034Z,13.13
2019-02-27T22:32:41.328Z,9.47
2019-02-27T22:35:09.866Z,11.93
2019-02-27T22:37:37.864Z,9.83
2019-02-27T22:40:07.677Z,12.10
2019-02-27T22:42:35.781Z,10.80
2019-02-27T22:45:04.947Z,12.50
2019-02-27T22:47:33.231Z,11.97
2019-02-27T22:50:06.094Z,15.30
2019-02-27T22:52:31.469Z,12.30
2019-02-27T22:54:59.657Z,11.47
2019-02-27T22:57:27.630Z,12.37
2019-02-27T22:59:56.006Z,11.80
2019-02-27T23:02:24.195Z,13.57
2019-02-27T23:04:52.365Z,15.90
2019-02-27T23:07:21.384Z,16.57
2019-02-27T23:09:49.771Z,14.03
2019-02-27T23:12:17.935Z,16.87
2019-02-27T23:14:45.969Z,18.87
2019-02-27T23:17:14.117Z,17.03
2019-02-27T23:19:46.041Z,16.80
2019-02-27T23:22:12.296Z,15.30
2019-02-27T23:24:43.407Z,16.37
2019-02-27T23:27:10.190Z,16.10
2019-02-27T23:29:39.986Z,16.60
2019-02-27T23:32:08.761Z,19.47
2019-02-27T23:34:38.447Z,19.67
2019-02-27T23:37:06.522Z,20.87
2019-02-27T23:39:34.450Z,22.20
2019-02-27T23:42:02.664Z,20.30
2019-02-27T23:44:30.798Z,20.00
2019-02-27T23:46:58.827Z,20.63
2019-02-27T23:49:26.896Z,21.03
2019-02-27T23:51:54.826Z,21.07
2019-02-27T23:54:22.883Z,27.20
2019-02-27T23:56:51.912Z,20.77
2019-02-27T23:59:20.768Z,24.03
